Jake Shearer — WDI8655 — position and weather

sailwx.info

Track history (hours):
 
Tides and Currents Weather Stations Pressure Air Temp Water Temp Dewpoint Dewpoint Depression Visibility Wind Speed Wind Dir Waves Ship Positions

Jake Shearer

Owner: Harley Marine Services, Inc, Seattle, WA. More information available from US FCC via Universal Licensing System and Coast Guard Vessel Documentation Center.

Last reported at 2018-Apr-26 23:46 UTC. Time now 2018-Apr-27 00:58 UTC.
Position N 47°34' W 122°21'.

Length 34 m; draft 4 m.

MMSI: 367740790.

Date/timePositionNaut miles runAvg speedWind from/ knotsBaromVisibWave heightAir tempDewpointWater temp
2018-Apr-26 23:46N 47°34' W 122°21'0 0.1
2018-Apr-26 23:28N 47°34' W 122°21'0 0.0
2018-Apr-26 21:52N 47°34' W 122°21'0 0.1
2018-Apr-26 21:28N 47°34' W 122°21'0 0.1
2018-Apr-26 20:49N 47°34' W 122°21'0 0.0
2018-Apr-26 20:16N 47°34' W 122°21'0 0.1
2018-Apr-26 19:58N 47°34' W 122°21'0 0.1
2018-Apr-26 19:22N 47°34' W 122°21'0 0.0
2018-Apr-26 18:55N 47°34' W 122°21'0 0.0
2018-Apr-26 18:25N 47°34' W 122°21'0 0.0
2018-Apr-26 16:13N 47°34' W 122°21'0 0.0
2018-Apr-26 15:52N 47°34' W 122°21'0 0.0
2018-Apr-26 14:52N 47°34' W 122°21'0 0.0
2018-Apr-26 14:22N 47°34' W 122°21'0 0.0
2018-Apr-26 08:13N 47°34' W 122°21'0 0.1
2018-Apr-26 07:44N 47°34' W 122°21'0 0.2
2018-Apr-26 07:30N 47°34' W 122°21'0 0.1
2018-Apr-26 07:00N 47°34' W 122°21'0 0.0
2018-Apr-26 06:30N 47°34' W 122°21'0 0.1
2018-Apr-26 06:00N 47°34' W 122°21'0 0.0
2018-Apr-26 05:31N 47°34' W 122°21'0 0.2
2018-Apr-26 05:01N 47°35' W 122°21'2 3.3
2018-Apr-26 04:30N 47°36' W 122°22'4 7.1
2018-Apr-26 04:00N 47°34' W 122°26'4 8.4
2018-Apr-26 03:31N 47°30' W 122°24'4 8.6
2018-Apr-26 03:01N 47°25' W 122°22'4 7.0
2018-Apr-26 02:30N 47°22' W 122°22'4 8.4
2018-Apr-26 02:01N 47°19' W 122°27'2 2.4
2018-Apr-26 01:11N 47°17' W 122°25'0 0.0
2018-Apr-26 00:44N 47°17' W 122°25'0 0.0
2018-Apr-26 00:29N 47°17' W 122°25'0 0.0
2018-Apr-25 23:20N 47°17' W 122°25'0 0.0
2018-Apr-25 22:59N 47°17' W 122°25'0 0.0
2018-Apr-25 22:20N 47°17' W 122°25'0 0.0
2018-Apr-25 20:47N 47°17' W 122°25'0 0.0
2018-Apr-25 20:23N 47°17' W 122°25'0 0.1
2018-Apr-25 19:59N 47°17' W 122°25'0 0.0
2018-Apr-25 19:11N 47°17' W 122°25'0 0.0
2018-Apr-25 18:56N 47°17' W 122°25'0 0.0
2018-Apr-25 18:29N 47°17' W 122°25'0 0.0
2018-Apr-25 17:59N 47°17' W 122°25'0 0.2
2018-Apr-25 17:08N 47°17' W 122°25'0 0.2
2018-Apr-25 16:59N 47°17' W 122°25'0 0.1
2018-Apr-25 16:17N 47°18' W 122°25'0 0.1
2018-Apr-25 15:56N 47°18' W 122°25'0 0.0
2018-Apr-25 15:29N 47°18' W 122°25'0 0.1
2018-Apr-25 14:59N 47°17' W 122°25'0 0.1
2018-Apr-25 14:11N 47°18' W 122°25'0 0.1
2018-Apr-25 13:14N 47°18' W 122°25'0 0.0
2018-Apr-25 12:59N 47°18' W 122°25'0 0.0
2018-Apr-25 12:26N 47°18' W 122°25'0 0.0
2018-Apr-25 11:59N 47°18' W 122°25'0 0.0
2018-Apr-25 11:08N 47°18' W 122°25'0 0.2
2018-Apr-25 10:53N 47°18' W 122°25'0 0.2
2018-Apr-25 10:17N 47°17' W 122°25'0 0.1
2018-Apr-25 09:05N 47°17' W 122°25'0 0.0
2018-Apr-25 08:53N 47°17' W 122°25'0 0.0
2018-Apr-25 08:20N 47°17' W 122°25'0 0.0
2018-Apr-25 07:44N 47°17' W 122°25'0 0.1
2018-Apr-25 07:17N 47°17' W 122°25'0 0.1
2018-Apr-25 06:56N 47°17' W 122°25'0 0.1
2018-Apr-25 06:26N 47°17' W 122°25'0 0.1
2018-Apr-25 05:44N 47°17' W 122°25'0 0.0
2018-Apr-25 04:02N 47°17' W 122°25'0 0.1
2018-Apr-25 02:50N 47°17' W 122°25'0 0.1
2018-Apr-25 02:26N 47°17' W 122°25'0 0.0
2018-Apr-25 01:53N 47°17' W 122°25'0 0.0
2018-Apr-25 00:56N 47°17' W 122°25'0 0.0
2018-Apr-24 23:11N 47°17' W 122°25'0 0.0
2018-Apr-24 22:38N 47°17' W 122°25'0 0.0
2018-Apr-24 22:14N 47°17' W 122°25'0 0.2
2018-Apr-24 21:26N 47°17' W 122°25'0 0.1
2018-Apr-24 20:50N 47°17' W 122°25'0 0.2
2018-Apr-24 20:14N 47°18' W 122°25'0 0.0
2018-Apr-24 17:02N 47°18' W 122°25'0 0.1
2018-Apr-24 16:44N 47°18' W 122°25'0 0.1
2018-Apr-24 16:26N 47°18' W 122°25'0 0.0
2018-Apr-24 15:56N 47°18' W 122°25'0 0.0
2018-Apr-24 15:29N 47°18' W 122°25'0 0.0
2018-Apr-24 14:59N 47°18' W 122°25'0 0.1
2018-Apr-24 14:26N 47°17' W 122°25'0 0.1
2018-Apr-24 13:44N 47°18' W 122°25'0 0.1
2018-Apr-24 13:26N 47°18' W 122°25'0 0.2
2018-Apr-24 12:59N 47°18' W 122°25'0 0.1
2018-Apr-24 12:17N 47°18' W 122°25'0 0.1
2018-Apr-24 11:56N 47°18' W 122°25'0 0.2
2018-Apr-24 11:23N 47°17' W 122°26'0 0.3
2018-Apr-24 10:56N 47°17' W 122°25'0 0.2
2018-Apr-24 10:29N 47°17' W 122°25'0 0.3
2018-Apr-24 09:50N 47°18' W 122°25'0 0.1
2018-Apr-24 09:29N 47°18' W 122°25'0 0.2
2018-Apr-24 08:59N 47°18' W 122°25'0 0.1
2018-Apr-24 08:29N 47°18' W 122°26'0 0.2
2018-Apr-24 07:59N 47°17' W 122°25'0 0.1
2018-Apr-24 07:11N 47°17' W 122°25'0 0.1
2018-Apr-24 06:53N 47°17' W 122°25'0 0.2
2018-Apr-24 06:26N 47°17' W 122°25'0 0.1
2018-Apr-24 05:35N 47°17' W 122°25'0 0.1
2018-Apr-24 05:08N 47°17' W 122°25'0 0.0
2018-Apr-24 04:59N 47°17' W 122°25'0 0.0
2018-Apr-24 04:26N 47°17' W 122°25'0 0.0
2018-Apr-24 02:53N 47°17' W 122°25'0 0.0
2018-Apr-24 02:08N 47°17' W 122°25'0 0.3
2018-Apr-24 01:59N 47°17' W 122°25'0 0.0
2018-Apr-24 01:26N 47°17' W 122°25'0 0.0
2018-Apr-24 00:56N 47°17' W 122°25'0 0.0
2018-Apr-23 23:47N 47°17' W 122°25'0 0.0
2018-Apr-23 22:26N 47°17' W 122°25'0 0.0
2018-Apr-23 21:59N 47°17' W 122°25'0 0.3
2018-Apr-23 21:29N 47°17' W 122°25'0 0.1
2018-Apr-23 20:47N 47°17' W 122°25'0 0.1
2018-Apr-23 19:14N 47°17' W 122°25'0 0.0
2018-Apr-23 17:32N 47°17' W 122°25'0 0.4
2018-Apr-23 17:26N 47°17' W 122°25'0 0.1
2018-Apr-23 16:53N 47°17' W 122°25'0 0.1
2018-Apr-23 16:25N 47°17' W 122°25'0 0.1
2018-Apr-23 15:58N 47°17' W 122°25'0 0.1
2018-Apr-23 15:25N 47°17' W 122°25'0 0.1
2018-Apr-23 14:58N 47°18' W 122°25'0 0.0
2018-Apr-23 14:28N 47°18' W 122°25'0 0.0
2018-Apr-23 13:58N 47°18' W 122°25'0 0.1
2018-Apr-23 13:19N 47°18' W 122°25'0 0.2
2018-Apr-23 12:55N 47°17' W 122°25'0 0.2
2018-Apr-23 12:28N 47°17' W 122°25'0 0.1
2018-Apr-23 11:49N 47°18' W 122°25'0 0.1
2018-Apr-23 11:25N 47°18' W 122°25'0 0.1
2018-Apr-23 10:55N 47°18' W 122°25'0 0.2
2018-Apr-23 10:28N 47°18' W 122°25'0 0.1
2018-Apr-23 09:58N 47°18' W 122°25'0 0.1
2018-Apr-23 09:22N 47°18' W 122°25'0 0.2
2018-Apr-23 08:19N 47°18' W 122°25'0 0.2
2018-Apr-23 07:58N 47°17' W 122°26'0 0.1
2018-Apr-23 07:28N 47°17' W 122°25'0 0.0
2018-Apr-23 06:58N 47°17' W 122°25'0 0.0
2018-Apr-23 06:25N 47°17' W 122°25'0 0.1
2018-Apr-23 05:52N 47°17' W 122°25'0 0.1
2018-Apr-23 05:25N 47°17' W 122°25'0 0.1
2018-Apr-23 04:58N 47°17' W 122°25'0 0.0
2018-Apr-23 04:25N 47°17' W 122°25'0 0.0
2018-Apr-23 03:25N 47°17' W 122°25'0 0.0
2018-Apr-23 02:55N 47°17' W 122°25'0 0.1
2018-Apr-23 02:07N 47°17' W 122°25'0 0.3
2018-Apr-23 01:58N 47°17' W 122°25'0 0.0
2018-Apr-23 01:04N 47°17' W 122°25'0 0.1
2018-Apr-23 00:43N 47°17' W 122°25'0 0.0
2018-Apr-23 00:28N 47°17' W 122°25'0 0.1
2018-Apr-22 23:46N 47°17' W 122°25'0 0.1
2018-Apr-22 23:22N 47°17' W 122°25'0 0.2
2018-Apr-22 22:43N 47°17' W 122°25'0 0.0
2018-Apr-22 22:25N 47°17' W 122°25'0 0.0
2018-Apr-22 21:58N 47°17' W 122°25'0 0.1
2018-Apr-22 21:28N 47°17' W 122°25'0 0.0
2018-Apr-22 20:10N 47°17' W 122°25'0 0.1
2018-Apr-22 19:46N 47°17' W 122°25'0 0.0
2018-Apr-22 19:28N 47°17' W 122°25'0 0.1
2018-Apr-22 18:52N 47°17' W 122°25'0 0.1
2018-Apr-22 18:28N 47°17' W 122°25'0 0.0
2018-Apr-22 17:52N 47°17' W 122°25'0 0.1
2018-Apr-22 17:25N 47°17' W 122°25'0 0.1
2018-Apr-22 16:49N 47°17' W 122°25'0 0.1
2018-Apr-22 16:22N 47°17' W 122°25'0 0.1
2018-Apr-22 15:58N 47°17' W 122°25'0 0.1
2018-Apr-22 15:22N 47°17' W 122°25'0 0.1
2018-Apr-22 14:43N 47°17' W 122°25'0 0.2
2018-Apr-22 14:28N 47°17' W 122°25'0 0.1
2018-Apr-22 13:49N 47°17' W 122°25'0 0.1
2018-Apr-22 13:19N 47°17' W 122°25'0 0.1
2018-Apr-22 12:43N 47°17' W 122°25'0 0.2
2018-Apr-22 12:28N 47°17' W 122°25'0 0.0
2018-Apr-22 11:46N 47°17' W 122°25'0 0.2
2018-Apr-22 10:55N 47°18' W 122°25'0 0.0
2018-Apr-22 10:16N 47°18' W 122°25'0 0.0
2018-Apr-22 09:58N 47°18' W 122°25'0 0.1
2018-Apr-22 09:28N 47°18' W 122°25'0 0.1
2018-Apr-22 08:58N 47°17' W 122°26'0 0.0
2018-Apr-22 08:28N 47°17' W 122°26'0 0.1
2018-Apr-22 07:58N 47°17' W 122°25'0 0.1
2018-Apr-22 07:25N 47°17' W 122°26'0 0.0
2018-Apr-22 06:49N 47°17' W 122°26'0 0.0
2018-Apr-22 06:22N 47°17' W 122°26'0 0.0
2018-Apr-22 05:58N 47°17' W 122°26'0 0.0
2018-Apr-22 05:28N 47°17' W 122°26'0 0.1
2018-Apr-22 04:49N 47°17' W 122°25'0 0.0
2018-Apr-22 04:28N 47°17' W 122°25'0 0.1
2018-Apr-22 03:55N 47°17' W 122°25'0 0.1
2018-Apr-22 02:40N 47°17' W 122°25'0 0.0
2018-Apr-22 02:22N 47°17' W 122°25'0 1.4
2018-Apr-22 02:00N 47°17' W 122°25'1 2.0
2018-Apr-22 01:29N 47°17' W 122°23'0 0.0
2018-Apr-21 01:39N 47°17' W 122°23'0 0.0
2018-Apr-21 01:30N 47°17' W 122°23'1 1.9
2018-Apr-21 00:53N 47°17' W 122°25'0 1.2
2018-Apr-21 00:31N 47°17' W 122°25'0 0.5
2018-Apr-21 00:00N 47°17' W 122°26'2 4.6
2018-Apr-20 23:30N 47°19' W 122°28'3 6.2
2018-Apr-20 23:01N 47°22' W 122°25'3 5.5
2018-Apr-20 22:30N 47°24' W 122°22'3 6.4
2018-Apr-20 22:00N 47°27' W 122°25'3 6.1
2018-Apr-20 21:31N 47°30' W 122°26'3 6.4
2018-Apr-20 21:00N 47°33' W 122°27'3 6.0
2018-Apr-20 20:31N 47°36' W 122°28'3 6.2
2018-Apr-20 20:00N 47°39' W 122°28'3 6.1
2018-Apr-20 19:31N 47°42' W 122°28'3 6.4
2018-Apr-20 19:01N 47°45' W 122°27'4 7.6
2018-Apr-20 18:31N 47°49' W 122°28'4 8.4
2018-Apr-20 18:00N 47°53' W 122°29'4 7.2
2018-Apr-20 17:30N 47°56' W 122°32'22 8.0
2018-Apr-20 14:43N 48°15' W 122°49'210.0
2018-Apr-20 14:30N 48°18' W 122°48'5 9.7
2018-Apr-20 13:59N 48°22' W 122°46'5 9.1
2018-Apr-20 13:29N 48°27' W 122°44'4 8.9
2018-Apr-20 13:00N 48°31' W 122°43'4 8.6
2018-Apr-20 12:31N 48°35' W 122°40'2 3.7
2018-Apr-20 12:00N 48°36' W 122°37'0 0.4
2018-Apr-20 11:28N 48°35' W 122°37'0 0.0
2018-Apr-20 10:55N 48°35' W 122°37'0 0.1
2018-Apr-20 10:25N 48°35' W 122°37'0 0.0
2018-Apr-20 09:52N 48°35' W 122°37'0 0.0
2018-Apr-20 09:22N 48°35' W 122°37'0 0.0
2018-Apr-20 08:55N 48°35' W 122°37'0 0.0
2018-Apr-20 08:04N 48°35' W 122°37'0 0.1
2018-Apr-20 07:52N 48°35' W 122°37'0 0.0
2018-Apr-20 07:28N 48°35' W 122°37'0 0.0
2018-Apr-20 06:52N 48°35' W 122°37'0 0.0
2018-Apr-20 06:25N 48°35' W 122°37'0 0.0
2018-Apr-20 05:58N 48°35' W 122°37'0 0.0
2018-Apr-20 05:25N 48°35' W 122°37'0 0.1
2018-Apr-20 04:31N 48°35' W 122°37'0 0.1
2018-Apr-20 04:13N 48°35' W 122°37'0 0.1
2018-Apr-20 03:55N 48°35' W 122°37'0 0.0
2018-Apr-20 03:19N 48°35' W 122°37'0 0.0
2018-Apr-20 02:52N 48°35' W 122°37'0 0.0
2018-Apr-20 02:22N 48°35' W 122°37'0 0.2
2018-Apr-20 01:34N 48°35' W 122°37'0 0.6
2018-Apr-20 01:28N 48°35' W 122°37'1 2.9
2018-Apr-20 01:01N 48°35' W 122°35'4 0.1
2018-Apr-18 19:01N 48°31' W 122°35'0 0.2
2018-Apr-18 18:51N 48°31' W 122°35'1 2.8
2018-Apr-18 18:29N 48°31' W 122°34'4 8.5
2018-Apr-18 18:00N 48°35' W 122°37'0 0.5
2018-Apr-18 17:20N 48°35' W 122°37'0 0.0
2018-Apr-18 16:50N 48°35' W 122°37'0 0.0
2018-Apr-18 15:14N 48°35' W 122°37'0 0.0
2018-Apr-18 14:50N 48°35' W 122°37'0 0.0
2018-Apr-18 14:20N 48°35' W 122°37'0 0.1
2018-Apr-18 13:53N 48°35' W 122°37'0 0.0
2018-Apr-18 13:02N 48°35' W 122°37'0 0.0
2018-Apr-18 12:35N 48°35' W 122°37'0 0.1
2018-Apr-18 12:23N 48°35' W 122°37'0 0.0
2018-Apr-18 11:50N 48°35' W 122°37'0 0.0
2018-Apr-18 11:23N 48°35' W 122°37'0 0.1
2018-Apr-18 10:50N 48°36' W 122°37'0 0.0
2018-Apr-18 10:30N 48°36' W 122°37'0 0.0
2018-Apr-18 10:00N 48°36' W 122°37'0 0.0
2018-Apr-18 09:29N 48°36' W 122°37'0 0.1
2018-Apr-18 09:00N 48°35' W 122°37'0 0.1
2018-Apr-18 08:30N 48°35' W 122°37'2 3.2
2018-Apr-18 08:00N 48°35' W 122°40'4 7.8
2018-Apr-18 07:30N 48°31' W 122°42'4 7.7
2018-Apr-18 07:00N 48°28' W 122°44'4 9.0
2018-Apr-18 06:30N 48°23' W 122°44'5 9.3
2018-Apr-18 06:00N 48°19' W 122°46'5 9.7
2018-Apr-18 05:30N 48°14' W 122°48'1410.6
2018-Apr-18 04:10N 48°02' W 122°37'211.2
2018-Apr-18 04:00N 48°00' W 122°36'511.0
2018-Apr-18 03:30N 47°56' W 122°30'5 9.8
2018-Apr-18 03:00N 47°52' W 122°28'5 9.8
2018-Apr-18 02:30N 47°47' W 122°26'5 9.8
2018-Apr-18 02:00N 47°42' W 122°27'5 9.0
2018-Apr-18 01:30N 47°38' W 122°25'4 7.4
2018-Apr-18 01:00N 47°35' W 122°21'1 1.5
2018-Apr-18 00:30N 47°35' W 122°21'0 0.4
2018-Apr-18 00:00N 47°34' W 122°21'0 0.1
2018-Apr-17 21:55N 47°34' W 122°21'0 0.0
2018-Apr-17 19:04N 47°34' W 122°21'0 0.1
2018-Apr-17 18:58N 47°34' W 122°21'0 0.0
2018-Apr-17 18:19N 47°34' W 122°21'0 0.0
2018-Apr-17 16:19N 47°34' W 122°21'0 0.0
2018-Apr-17 15:58N 47°34' W 122°21'0 0.0
2018-Apr-17 15:28N 47°34' W 122°21'0 0.0
2018-Apr-17 14:55N 47°34' W 122°21'0 0.0
2018-Apr-17 14:22N 47°34' W 122°21'0 0.0
2018-Apr-17 13:52N 47°34' W 122°21'0 0.0
2018-Apr-17 13:28N 47°34' W 122°21'0 0.0
2018-Apr-17 12:10N 47°34' W 122°21'0 0.0
2018-Apr-17 11:49N 47°34' W 122°21'0 0.0
2018-Apr-17 10:22N 47°34' W 122°21'0 0.0
2018-Apr-17 09:58N 47°34' W 122°21'0 0.0
2018-Apr-17 08:49N 47°34' W 122°21'0 0.0
2018-Apr-17 08:19N 47°34' W 122°21'0 0.0
2018-Apr-17 07:58N 47°34' W 122°21'0 0.0
2018-Apr-17 06:04N 47°34' W 122°21'0 0.0
2018-Apr-17 05:04N 47°34' W 122°21'0 0.0
2018-Apr-17 04:52N 47°34' W 122°21'0 0.0
2018-Apr-17 03:28N 47°34' W 122°21'0 0.0
2018-Apr-17 02:37N 47°34' W 122°21'0 0.0
2018-Apr-17 02:28N 47°34' W 122°21'0 0.0
2018-Apr-17 01:49N 47°34' W 122°21'0 0.0
2018-Apr-17 01:28N 47°34' W 122°21'0 0.0
2018-Apr-17 00:49N 47°34' W 122°21'0 0.0
2018-Apr-17 00:22N 47°34' W 122°21'  
Track history (hours):
 
Tides and Currents Weather Stations Pressure Air Temp Water Temp Dewpoint Dewpoint Depression Visibility Wind Speed Wind Dir Waves Ship Positions

Jake Shearer

Owner: Harley Marine Services, Inc, Seattle, WA. More information available from US FCC via Universal Licensing System and Coast Guard Vessel Documentation Center.

Last reported at 2018-Apr-26 23:46 UTC. Time now 2018-Apr-27 00:58 UTC.
Position N 47°34' W 122°21'.

Length 34 m; draft 4 m.

MMSI: 367740790.

Date/timePositionNaut miles runAvg speedWind from/ knotsBaromVisibWave heightAir tempDewpointWater temp
2018-Apr-26 23:46N 47°34' W 122°21'0 0.1
2018-Apr-26 23:28N 47°34' W 122°21'0 0.0
2018-Apr-26 21:52N 47°34' W 122°21'0 0.1
2018-Apr-26 21:28N 47°34' W 122°21'0 0.1
2018-Apr-26 20:49N 47°34' W 122°21'0 0.0
2018-Apr-26 20:16N 47°34' W 122°21'0 0.1
2018-Apr-26 19:58N 47°34' W 122°21'0 0.1
2018-Apr-26 19:22N 47°34' W 122°21'0 0.0
2018-Apr-26 18:55N 47°34' W 122°21'0 0.0
2018-Apr-26 18:25N 47°34' W 122°21'0 0.0
2018-Apr-26 16:13N 47°34' W 122°21'0 0.0
2018-Apr-26 15:52N 47°34' W 122°21'0 0.0
2018-Apr-26 14:52N 47°34' W 122°21'0 0.0
2018-Apr-26 14:22N 47°34' W 122°21'0 0.0
2018-Apr-26 08:13N 47°34' W 122°21'0 0.1
2018-Apr-26 07:44N 47°34' W 122°21'0 0.2
2018-Apr-26 07:30N 47°34' W 122°21'0 0.1
2018-Apr-26 07:00N 47°34' W 122°21'0 0.0
2018-Apr-26 06:30N 47°34' W 122°21'0 0.1
2018-Apr-26 06:00N 47°34' W 122°21'0 0.0
2018-Apr-26 05:31N 47°34' W 122°21'0 0.2
2018-Apr-26 05:01N 47°35' W 122°21'2 3.3
2018-Apr-26 04:30N 47°36' W 122°22'4 7.1
2018-Apr-26 04:00N 47°34' W 122°26'4 8.4
2018-Apr-26 03:31N 47°30' W 122°24'4 8.6
2018-Apr-26 03:01N 47°25' W 122°22'4 7.0
2018-Apr-26 02:30N 47°22' W 122°22'4 8.4
2018-Apr-26 02:01N 47°19' W 122°27'2 2.4
2018-Apr-26 01:11N 47°17' W 122°25'0 0.0
2018-Apr-26 00:44N 47°17' W 122°25'0 0.0
2018-Apr-26 00:29N 47°17' W 122°25'0 0.0
2018-Apr-25 23:20N 47°17' W 122°25'0 0.0
2018-Apr-25 22:59N 47°17' W 122°25'0 0.0
2018-Apr-25 22:20N 47°17' W 122°25'0 0.0
2018-Apr-25 20:47N 47°17' W 122°25'0 0.0
2018-Apr-25 20:23N 47°17' W 122°25'0 0.1
2018-Apr-25 19:59N 47°17' W 122°25'0 0.0
2018-Apr-25 19:11N 47°17' W 122°25'0 0.0
2018-Apr-25 18:56N 47°17' W 122°25'0 0.0
2018-Apr-25 18:29N 47°17' W 122°25'0 0.0
2018-Apr-25 17:59N 47°17' W 122°25'0 0.2
2018-Apr-25 17:08N 47°17' W 122°25'0 0.2
2018-Apr-25 16:59N 47°17' W 122°25'0 0.1
2018-Apr-25 16:17N 47°18' W 122°25'0 0.1
2018-Apr-25 15:56N 47°18' W 122°25'0 0.0
2018-Apr-25 15:29N 47°18' W 122°25'0 0.1
2018-Apr-25 14:59N 47°17' W 122°25'0 0.1
2018-Apr-25 14:11N 47°18' W 122°25'0 0.1
2018-Apr-25 13:14N 47°18' W 122°25'0 0.0
2018-Apr-25 12:59N 47°18' W 122°25'0 0.0
2018-Apr-25 12:26N 47°18' W 122°25'0 0.0
2018-Apr-25 11:59N 47°18' W 122°25'0 0.0
2018-Apr-25 11:08N 47°18' W 122°25'0 0.2
2018-Apr-25 10:53N 47°18' W 122°25'0 0.2
2018-Apr-25 10:17N 47°17' W 122°25'0 0.1
2018-Apr-25 09:05N 47°17' W 122°25'0 0.0
2018-Apr-25 08:53N 47°17' W 122°25'0 0.0
2018-Apr-25 08:20N 47°17' W 122°25'0 0.0
2018-Apr-25 07:44N 47°17' W 122°25'0 0.1
2018-Apr-25 07:17N 47°17' W 122°25'0 0.1
2018-Apr-25 06:56N 47°17' W 122°25'0 0.1
2018-Apr-25 06:26N 47°17' W 122°25'0 0.1
2018-Apr-25 05:44N 47°17' W 122°25'0 0.0
2018-Apr-25 04:02N 47°17' W 122°25'0 0.1
2018-Apr-25 02:50N 47°17' W 122°25'0 0.1
2018-Apr-25 02:26N 47°17' W 122°25'0 0.0
2018-Apr-25 01:53N 47°17' W 122°25'0 0.0
2018-Apr-25 00:56N 47°17' W 122°25'0 0.0
2018-Apr-24 23:11N 47°17' W 122°25'0 0.0
2018-Apr-24 22:38N 47°17' W 122°25'0 0.0
2018-Apr-24 22:14N 47°17' W 122°25'0 0.2
2018-Apr-24 21:26N 47°17' W 122°25'0 0.1
2018-Apr-24 20:50N 47°17' W 122°25'0 0.2
2018-Apr-24 20:14N 47°18' W 122°25'0 0.0
2018-Apr-24 17:02N 47°18' W 122°25'0 0.1
2018-Apr-24 16:44N 47°18' W 122°25'0 0.1
2018-Apr-24 16:26N 47°18' W 122°25'0 0.0
2018-Apr-24 15:56N 47°18' W 122°25'0 0.0
2018-Apr-24 15:29N 47°18' W 122°25'0 0.0
2018-Apr-24 14:59N 47°18' W 122°25'0 0.1
2018-Apr-24 14:26N 47°17' W 122°25'0 0.1
2018-Apr-24 13:44N 47°18' W 122°25'0 0.1
2018-Apr-24 13:26N 47°18' W 122°25'0 0.2
2018-Apr-24 12:59N 47°18' W 122°25'0 0.1
2018-Apr-24 12:17N 47°18' W 122°25'0 0.1
2018-Apr-24 11:56N 47°18' W 122°25'0 0.2
2018-Apr-24 11:23N 47°17' W 122°26'0 0.3
2018-Apr-24 10:56N 47°17' W 122°25'0 0.2
2018-Apr-24 10:29N 47°17' W 122°25'0 0.3
2018-Apr-24 09:50N 47°18' W 122°25'0 0.1
2018-Apr-24 09:29N 47°18' W 122°25'0 0.2
2018-Apr-24 08:59N 47°18' W 122°25'0 0.1
2018-Apr-24 08:29N 47°18' W 122°26'0 0.2
2018-Apr-24 07:59N 47°17' W 122°25'0 0.1
2018-Apr-24 07:11N 47°17' W 122°25'0 0.1
2018-Apr-24 06:53N 47°17' W 122°25'0 0.2
2018-Apr-24 06:26N 47°17' W 122°25'0 0.1
2018-Apr-24 05:35N 47°17' W 122°25'0 0.1
2018-Apr-24 05:08N 47°17' W 122°25'0 0.0
2018-Apr-24 04:59N 47°17' W 122°25'0 0.0
2018-Apr-24 04:26N 47°17' W 122°25'0 0.0
2018-Apr-24 02:53N 47°17' W 122°25'0 0.0
2018-Apr-24 02:08N 47°17' W 122°25'0 0.3
2018-Apr-24 01:59N 47°17' W 122°25'0 0.0
2018-Apr-24 01:26N 47°17' W 122°25'0 0.0
2018-Apr-24 00:56N 47°17' W 122°25'0 0.0
2018-Apr-23 23:47N 47°17' W 122°25'0 0.0
2018-Apr-23 22:26N 47°17' W 122°25'0 0.0
2018-Apr-23 21:59N 47°17' W 122°25'0 0.3
2018-Apr-23 21:29N 47°17' W 122°25'0 0.1
2018-Apr-23 20:47N 47°17' W 122°25'0 0.1
2018-Apr-23 19:14N 47°17' W 122°25'0 0.0
2018-Apr-23 17:32N 47°17' W 122°25'0 0.4
2018-Apr-23 17:26N 47°17' W 122°25'0 0.1
2018-Apr-23 16:53N 47°17' W 122°25'0 0.1
2018-Apr-23 16:25N 47°17' W 122°25'0 0.1
2018-Apr-23 15:58N 47°17' W 122°25'0 0.1
2018-Apr-23 15:25N 47°17' W 122°25'0 0.1
2018-Apr-23 14:58N 47°18' W 122°25'0 0.0
2018-Apr-23 14:28N 47°18' W 122°25'0 0.0
2018-Apr-23 13:58N 47°18' W 122°25'0 0.1
2018-Apr-23 13:19N 47°18' W 122°25'0 0.2
2018-Apr-23 12:55N 47°17' W 122°25'0 0.2
2018-Apr-23 12:28N 47°17' W 122°25'0 0.1
2018-Apr-23 11:49N 47°18' W 122°25'0 0.1
2018-Apr-23 11:25N 47°18' W 122°25'0 0.1
2018-Apr-23 10:55N 47°18' W 122°25'0 0.2
2018-Apr-23 10:28N 47°18' W 122°25'0 0.1
2018-Apr-23 09:58N 47°18' W 122°25'0 0.1
2018-Apr-23 09:22N 47°18' W 122°25'0 0.2
2018-Apr-23 08:19N 47°18' W 122°25'0 0.2
2018-Apr-23 07:58N 47°17' W 122°26'0 0.1
2018-Apr-23 07:28N 47°17' W 122°25'0 0.0
2018-Apr-23 06:58N 47°17' W 122°25'0 0.0
2018-Apr-23 06:25N 47°17' W 122°25'0 0.1
2018-Apr-23 05:52N 47°17' W 122°25'0 0.1
2018-Apr-23 05:25N 47°17' W 122°25'0 0.1
2018-Apr-23 04:58N 47°17' W 122°25'0 0.0
2018-Apr-23 04:25N 47°17' W 122°25'0 0.0
2018-Apr-23 03:25N 47°17' W 122°25'0 0.0
2018-Apr-23 02:55N 47°17' W 122°25'0 0.1
2018-Apr-23 02:07N 47°17' W 122°25'0 0.3
2018-Apr-23 01:58N 47°17' W 122°25'0 0.0
2018-Apr-23 01:04N 47°17' W 122°25'0 0.1
2018-Apr-23 00:43N 47°17' W 122°25'0 0.0
2018-Apr-23 00:28N 47°17' W 122°25'0 0.1
2018-Apr-22 23:46N 47°17' W 122°25'0 0.1
2018-Apr-22 23:22N 47°17' W 122°25'0 0.2
2018-Apr-22 22:43N 47°17' W 122°25'0 0.0
2018-Apr-22 22:25N 47°17' W 122°25'0 0.0
2018-Apr-22 21:58N 47°17' W 122°25'0 0.1
2018-Apr-22 21:28N 47°17' W 122°25'0 0.0
2018-Apr-22 20:10N 47°17' W 122°25'0 0.1
2018-Apr-22 19:46N 47°17' W 122°25'0 0.0
2018-Apr-22 19:28N 47°17' W 122°25'0 0.1
2018-Apr-22 18:52N 47°17' W 122°25'0 0.1
2018-Apr-22 18:28N 47°17' W 122°25'0 0.0
2018-Apr-22 17:52N 47°17' W 122°25'0 0.1
2018-Apr-22 17:25N 47°17' W 122°25'0 0.1
2018-Apr-22 16:49N 47°17' W 122°25'0 0.1
2018-Apr-22 16:22N 47°17' W 122°25'0 0.1
2018-Apr-22 15:58N 47°17' W 122°25'0 0.1
2018-Apr-22 15:22N 47°17' W 122°25'0 0.1
2018-Apr-22 14:43N 47°17' W 122°25'0 0.2
2018-Apr-22 14:28N 47°17' W 122°25'0 0.1
2018-Apr-22 13:49N 47°17' W 122°25'0 0.1
2018-Apr-22 13:19N 47°17' W 122°25'0 0.1
2018-Apr-22 12:43N 47°17' W 122°25'0 0.2
2018-Apr-22 12:28N 47°17' W 122°25'0 0.0
2018-Apr-22 11:46N 47°17' W 122°25'0 0.2
2018-Apr-22 10:55N 47°18' W 122°25'0 0.0
2018-Apr-22 10:16N 47°18' W 122°25'0 0.0
2018-Apr-22 09:58N 47°18' W 122°25'0 0.1
2018-Apr-22 09:28N 47°18' W 122°25'0 0.1
2018-Apr-22 08:58N 47°17' W 122°26'0 0.0
2018-Apr-22 08:28N 47°17' W 122°26'0 0.1
2018-Apr-22 07:58N 47°17' W 122°25'0 0.1
2018-Apr-22 07:25N 47°17' W 122°26'0 0.0
2018-Apr-22 06:49N 47°17' W 122°26'0 0.0
2018-Apr-22 06:22N 47°17' W 122°26'0 0.0
2018-Apr-22 05:58N 47°17' W 122°26'0 0.0
2018-Apr-22 05:28N 47°17' W 122°26'0 0.1
2018-Apr-22 04:49N 47°17' W 122°25'0 0.0
2018-Apr-22 04:28N 47°17' W 122°25'0 0.1
2018-Apr-22 03:55N 47°17' W 122°25'0 0.1
2018-Apr-22 02:40N 47°17' W 122°25'0 0.0
2018-Apr-22 02:22N 47°17' W 122°25'0 1.4
2018-Apr-22 02:00N 47°17' W 122°25'1 2.0
2018-Apr-22 01:29N 47°17' W 122°23'0 0.0
2018-Apr-21 01:39N 47°17' W 122°23'0 0.0
2018-Apr-21 01:30N 47°17' W 122°23'1 1.9
2018-Apr-21 00:53N 47°17' W 122°25'0 1.2
2018-Apr-21 00:31N 47°17' W 122°25'0 0.5
2018-Apr-21 00:00N 47°17' W 122°26'2 4.6
2018-Apr-20 23:30N 47°19' W 122°28'3 6.2
2018-Apr-20 23:01N 47°22' W 122°25'3 5.5
2018-Apr-20 22:30N 47°24' W 122°22'3 6.4
2018-Apr-20 22:00N 47°27' W 122°25'3 6.1
2018-Apr-20 21:31N 47°30' W 122°26'3 6.4
2018-Apr-20 21:00N 47°33' W 122°27'3 6.0
2018-Apr-20 20:31N 47°36' W 122°28'3 6.2
2018-Apr-20 20:00N 47°39' W 122°28'3 6.1
2018-Apr-20 19:31N 47°42' W 122°28'3 6.4
2018-Apr-20 19:01N 47°45' W 122°27'4 7.6
2018-Apr-20 18:31N 47°49' W 122°28'4 8.4
2018-Apr-20 18:00N 47°53' W 122°29'4 7.2
2018-Apr-20 17:30N 47°56' W 122°32'22 8.0
2018-Apr-20 14:43N 48°15' W 122°49'210.0
2018-Apr-20 14:30N 48°18' W 122°48'5 9.7
2018-Apr-20 13:59N 48°22' W 122°46'5 9.1
2018-Apr-20 13:29N 48°27' W 122°44'4 8.9
2018-Apr-20 13:00N 48°31' W 122°43'4 8.6
2018-Apr-20 12:31N 48°35' W 122°40'2 3.7
2018-Apr-20 12:00N 48°36' W 122°37'0 0.4
2018-Apr-20 11:28N 48°35' W 122°37'0 0.0
2018-Apr-20 10:55N 48°35' W 122°37'0 0.1
2018-Apr-20 10:25N 48°35' W 122°37'0 0.0
2018-Apr-20 09:52N 48°35' W 122°37'0 0.0
2018-Apr-20 09:22N 48°35' W 122°37'0 0.0
2018-Apr-20 08:55N 48°35' W 122°37'0 0.0
2018-Apr-20 08:04N 48°35' W 122°37'0 0.1
2018-Apr-20 07:52N 48°35' W 122°37'0 0.0
2018-Apr-20 07:28N 48°35' W 122°37'0 0.0
2018-Apr-20 06:52N 48°35' W 122°37'0 0.0
2018-Apr-20 06:25N 48°35' W 122°37'0 0.0
2018-Apr-20 05:58N 48°35' W 122°37'0 0.0
2018-Apr-20 05:25N 48°35' W 122°37'0 0.1
2018-Apr-20 04:31N 48°35' W 122°37'0 0.1
2018-Apr-20 04:13N 48°35' W 122°37'0 0.1
2018-Apr-20 03:55N 48°35' W 122°37'0 0.0
2018-Apr-20 03:19N 48°35' W 122°37'0 0.0
2018-Apr-20 02:52N 48°35' W 122°37'0 0.0
2018-Apr-20 02:22N 48°35' W 122°37'0 0.2
2018-Apr-20 01:34N 48°35' W 122°37'0 0.6
2018-Apr-20 01:28N 48°35' W 122°37'1 2.9
2018-Apr-20 01:01N 48°35' W 122°35'4 0.1
2018-Apr-18 19:01N 48°31' W 122°35'0 0.2
2018-Apr-18 18:51N 48°31' W 122°35'1 2.8
2018-Apr-18 18:29N 48°31' W 122°34'4 8.5
2018-Apr-18 18:00N 48°35' W 122°37'0 0.5
2018-Apr-18 17:20N 48°35' W 122°37'0 0.0
2018-Apr-18 16:50N 48°35' W 122°37'0 0.0
2018-Apr-18 15:14N 48°35' W 122°37'0 0.0
2018-Apr-18 14:50N 48°35' W 122°37'0 0.0
2018-Apr-18 14:20N 48°35' W 122°37'0 0.1
2018-Apr-18 13:53N 48°35' W 122°37'0 0.0
2018-Apr-18 13:02N 48°35' W 122°37'0 0.0
2018-Apr-18 12:35N 48°35' W 122°37'0 0.1
2018-Apr-18 12:23N 48°35' W 122°37'0 0.0
2018-Apr-18 11:50N 48°35' W 122°37'0 0.0
2018-Apr-18 11:23N 48°35' W 122°37'0 0.1
2018-Apr-18 10:50N 48°36' W 122°37'0 0.0
2018-Apr-18 10:30N 48°36' W 122°37'0 0.0
2018-Apr-18 10:00N 48°36' W 122°37'0 0.0
2018-Apr-18 09:29N 48°36' W 122°37'0 0.1
2018-Apr-18 09:00N 48°35' W 122°37'0 0.1
2018-Apr-18 08:30N 48°35' W 122°37'2 3.2
2018-Apr-18 08:00N 48°35' W 122°40'4 7.8
2018-Apr-18 07:30N 48°31' W 122°42'4 7.7
2018-Apr-18 07:00N 48°28' W 122°44'4 9.0
2018-Apr-18 06:30N 48°23' W 122°44'5 9.3
2018-Apr-18 06:00N 48°19' W 122°46'5 9.7
2018-Apr-18 05:30N 48°14' W 122°48'1410.6
2018-Apr-18 04:10N 48°02' W 122°37'211.2
2018-Apr-18 04:00N 48°00' W 122°36'511.0
2018-Apr-18 03:30N 47°56' W 122°30'5 9.8
2018-Apr-18 03:00N 47°52' W 122°28'5 9.8
2018-Apr-18 02:30N 47°47' W 122°26'5 9.8
2018-Apr-18 02:00N 47°42' W 122°27'5 9.0
2018-Apr-18 01:30N 47°38' W 122°25'4 7.4
2018-Apr-18 01:00N 47°35' W 122°21'1 1.5
2018-Apr-18 00:30N 47°35' W 122°21'0 0.4
2018-Apr-18 00:00N 47°34' W 122°21'0 0.1
2018-Apr-17 21:55N 47°34' W 122°21'0 0.0
2018-Apr-17 19:04N 47°34' W 122°21'0 0.1
2018-Apr-17 18:58N 47°34' W 122°21'0 0.0
2018-Apr-17 18:19N 47°34' W 122°21'0 0.0
2018-Apr-17 16:19N 47°34' W 122°21'0 0.0
2018-Apr-17 15:58N 47°34' W 122°21'0 0.0
2018-Apr-17 15:28N 47°34' W 122°21'0 0.0
2018-Apr-17 14:55N 47°34' W 122°21'0 0.0
2018-Apr-17 14:22N 47°34' W 122°21'0 0.0
2018-Apr-17 13:52N 47°34' W 122°21'0 0.0
2018-Apr-17 13:28N 47°34' W 122°21'0 0.0
2018-Apr-17 12:10N 47°34' W 122°21'0 0.0
2018-Apr-17 11:49N 47°34' W 122°21'0 0.0
2018-Apr-17 10:22N 47°34' W 122°21'0 0.0
2018-Apr-17 09:58N 47°34' W 122°21'0 0.0
2018-Apr-17 08:49N 47°34' W 122°21'0 0.0
2018-Apr-17 08:19N 47°34' W 122°21'0 0.0
2018-Apr-17 07:58N 47°34' W 122°21'0 0.0
2018-Apr-17 06:04N 47°34' W 122°21'0 0.0
2018-Apr-17 05:04N 47°34' W 122°21'0 0.0
2018-Apr-17 04:52N 47°34' W 122°21'0 0.0
2018-Apr-17 03:28N 47°34' W 122°21'0 0.0
2018-Apr-17 02:37N 47°34' W 122°21'0 0.0
2018-Apr-17 02:28N 47°34' W 122°21'0 0.0
2018-Apr-17 01:49N 47°34' W 122°21'0 0.0
2018-Apr-17 01:28N 47°34' W 122°21'0 0.0
2018-Apr-17 00:49N 47°34' W 122°21'0 0.0
2018-Apr-17 00:22N 47°34' W 122°21'  

Dump ship's entire track history